createdAt,value
2017-09-07T00:00:22.387Z,0
2017-09-07T00:01:32.659Z,0
2017-09-07T00:02:42.924Z,0
2017-09-07T00:03:53.189Z,0
2017-09-07T00:05:03.146Z,0
2017-09-07T00:06:13.093Z,0
2017-09-07T00:07:23.367Z,0
2017-09-07T00:08:33.636Z,0
2017-09-07T00:09:43.580Z,0
2017-09-07T00:10:53.540Z,0
2017-09-07T00:12:03.808Z,0
2017-09-07T00:13:14.071Z,0
2017-09-07T00:14:24.341Z,0
2017-09-07T00:15:34.609Z,0
2017-09-07T00:16:44.884Z,0
2017-09-07T00:17:55.156Z,0
2017-09-07T00:19:05.098Z,0
2017-09-07T00:20:15.364Z,0
2017-09-07T00:21:25.669Z,0
2017-09-07T00:22:35.936Z,0
2017-09-07T00:23:46.207Z,0
2017-09-07T00:24:56.151Z,0
2017-09-07T00:26:05.797Z,0
2017-09-07T00:27:16.060Z,0
2017-09-07T00:28:26.327Z,0
2017-09-07T00:29:36.600Z,0
2017-09-07T00:30:46.221Z,0
2017-09-07T00:31:56.490Z,0
2017-09-07T00:33:06.756Z,0
2017-09-07T00:34:17.020Z,0
2017-09-07T00:35:27.286Z,0
2017-09-07T00:36:37.552Z,0
2017-09-07T00:37:47.174Z,0
2017-09-07T00:38:57.121Z,0
2017-09-07T00:40:07.390Z,0
2017-09-07T00:41:17.656Z,0
2017-09-07T00:42:27.599Z,0
2017-09-07T00:43:37.543Z,0
2017-09-07T00:44:47.490Z,0
2017-09-07T00:45:57.435Z,0
2017-09-07T00:47:07.379Z,0
2017-09-07T00:48:17.321Z,0
2017-09-07T00:49:27.278Z,0
2017-09-07T00:50:37.548Z,0
2017-09-07T00:51:47.812Z,0
2017-09-07T00:52:57.788Z,0
2017-09-07T00:54:08.051Z,0
2017-09-07T00:55:18.316Z,0
2017-09-07T00:56:28.588Z,0
2017-09-07T00:57:38.855Z,0
2017-09-07T00:58:49.122Z,0
2017-09-07T00:59:59.065Z,0
2017-09-07T01:01:09.371Z,0
2017-09-07T01:02:19.633Z,0
2017-09-07T01:03:29.254Z,0
2017-09-07T01:04:39.200Z,0
2017-09-07T01:05:49.469Z,0
2017-09-07T01:06:59.412Z,0
2017-09-07T01:08:09.363Z,0
2017-09-07T01:09:19.628Z,0
2017-09-07T01:10:29.575Z,0
2017-09-07T01:11:39.839Z,0
2017-09-07T01:12:49.781Z,0
2017-09-07T01:13:59.405Z,0
2017-09-07T01:15:09.678Z,0
2017-09-07T01:16:19.625Z,0
2017-09-07T01:17:29.892Z,0
2017-09-07T01:18:40.157Z,0
2017-09-07T01:19:50.100Z,0
2017-09-07T01:21:00.373Z,0
2017-09-07T01:22:09.996Z,0
2017-09-07T01:23:19.624Z,0
2017-09-07T01:24:29.893Z,0
2017-09-07T01:25:40.157Z,0
2017-09-07T01:26:50.101Z,0
2017-09-07T01:28:00.363Z,0
2017-09-07T01:29:10.629Z,0
2017-09-07T01:30:20.895Z,0
2017-09-07T01:31:30.539Z,0
2017-09-07T01:32:40.487Z,0
2017-09-07T01:33:50.431Z,0
2017-09-07T01:35:00.697Z,0
2017-09-07T01:36:10.965Z,0
2017-09-07T01:37:21.265Z,0
2017-09-07T01:38:31.204Z,0
2017-09-07T01:39:40.828Z,0
2017-09-07T01:40:51.093Z,0
2017-09-07T01:42:00.717Z,0
2017-09-07T01:43:10.981Z,0
2017-09-07T01:44:20.921Z,0
2017-09-07T01:45:30.864Z,0
2017-09-07T01:46:41.162Z,0
2017-09-07T01:47:51.429Z,0
2017-09-07T01:49:01.694Z,0
2017-09-07T01:50:11.315Z,0
2017-09-07T01:51:21.585Z,0
2017-09-07T01:52:31.866Z,0
2017-09-07T01:53:41.816Z,0
2017-09-07T01:54:52.082Z,0
2017-09-07T01:56:02.348Z,0
2017-09-07T01:57:12.299Z,0
2017-09-07T01:58:22.242Z,0
2017-09-07T01:59:32.510Z,0
2017-09-07T02:00:42.778Z,0
2017-09-07T02:01:53.043Z,0
2017-09-07T02:03:03.308Z,0
2017-09-07T02:04:13.572Z,0
2017-09-07T02:05:23.515Z,0
2017-09-07T02:06:33.783Z,0
2017-09-07T02:07:43.404Z,0
2017-09-07T02:08:53.345Z,0
2017-09-07T02:10:02.966Z,0
2017-09-07T02:11:12.913Z,0
2017-09-07T02:12:23.185Z,0
2017-09-07T02:13:32.807Z,0
2017-09-07T02:14:43.106Z,0
2017-09-07T02:15:53.046Z,0
2017-09-07T02:17:02.988Z,0
2017-09-07T02:18:13.258Z,0
2017-09-07T02:19:23.526Z,0
2017-09-07T02:20:33.471Z,0
2017-09-07T02:21:43.419Z,0
2017-09-07T02:22:53.363Z,0
2017-09-07T02:24:03.311Z,0
2017-09-07T02:25:13.257Z,0
2017-09-07T02:26:23.522Z,0
2017-09-07T02:27:33.788Z,0
2017-09-07T02:28:43.731Z,0
2017-09-07T02:29:53.354Z,0
2017-09-07T02:31:03.621Z,0
2017-09-07T02:32:13.564Z,0
2017-09-07T02:33:23.515Z,0
2017-09-07T02:34:33.922Z,0
2017-09-07T02:35:43.685Z,0
2017-09-07T02:36:53.441Z,0
2017-09-07T02:38:03.530Z,0
2017-09-07T02:39:13.951Z,0
2017-09-07T02:40:23.707Z,0
2017-09-07T02:41:33.793Z,0
2017-09-07T02:42:43.549Z,0
2017-09-07T02:43:53.642Z,0
2017-09-07T02:45:03.734Z,0
2017-09-07T02:46:13.835Z,0
2017-09-07T02:47:23.921Z,0
2017-09-07T02:48:34.344Z,0
2017-09-07T02:49:44.761Z,0
2017-09-07T02:50:55.189Z,0
2017-09-07T02:52:05.279Z,0
2017-09-07T02:53:15.704Z,0
2017-09-07T02:54:25.459Z,0
2017-09-07T02:55:35.877Z,0
2017-09-07T02:56:45.964Z,0
2017-09-07T02:57:56.263Z,0
2017-09-07T02:59:05.887Z,0
2017-09-07T03:00:15.510Z,0
2017-09-07T03:01:25.455Z,0
2017-09-07T03:02:35.406Z,0
2017-09-07T03:03:45.670Z,0
2017-09-07T03:04:55.936Z,0
2017-09-07T03:06:05.566Z,0
2017-09-07T03:07:15.844Z,0
2017-09-07T03:08:26.110Z,0
2017-09-07T03:09:36.121Z,0
2017-09-07T03:10:45.751Z,0
2017-09-07T03:11:56.022Z,0
2017-09-07T03:13:05.648Z,0
2017-09-07T03:14:15.917Z,0
2017-09-07T03:15:25.545Z,0
2017-09-07T03:16:35.166Z,0
2017-09-07T03:17:45.434Z,0
2017-09-07T03:18:55.707Z,0
2017-09-07T03:20:05.982Z,0
2017-09-07T03:21:15.956Z,0
2017-09-07T03:22:26.231Z,0
2017-09-07T03:23:36.175Z,0
2017-09-07T03:24:46.437Z,0
2017-09-07T03:25:56.384Z,0
2017-09-07T03:27:06.004Z,0
2017-09-07T03:28:16.316Z,0
2017-09-07T03:29:26.256Z,0
2017-09-07T03:30:36.539Z,0
2017-09-07T03:31:46.807Z,0
2017-09-07T03:32:57.080Z,0
2017-09-07T03:34:07.344Z,0
2017-09-07T03:35:17.288Z,0
2017-09-07T03:36:27.231Z,0
2017-09-07T03:37:37.498Z,0
2017-09-07T03:38:47.158Z,0
2017-09-07T03:39:57.107Z,0
2017-09-07T03:41:07.048Z,0
2017-09-07T03:42:17.318Z,0
2017-09-07T03:43:26.620Z,0
2017-09-07T03:44:36.892Z,0
2017-09-07T03:45:47.157Z,0
2017-09-07T03:46:57.105Z,0
2017-09-07T03:48:07.372Z,0
2017-09-07T03:49:17.637Z,0
2017-09-07T03:50:27.907Z,0
2017-09-07T03:51:37.535Z,0
2017-09-07T03:52:47.798Z,0
2017-09-07T03:53:57.740Z,0
2017-09-07T03:55:08.007Z,0
2017-09-07T03:56:18.273Z,0
2017-09-07T03:57:28.216Z,0
2017-09-07T03:58:38.162Z,0
2017-09-07T03:59:48.425Z,0
2017-09-07T04:00:58.699Z,0
2017-09-07T04:02:08.653Z,0
2017-09-07T04:03:18.597Z,0
2017-09-07T04:04:28.865Z,0
2017-09-07T04:05:39.133Z,0
2017-09-07T04:06:49.075Z,0
2017-09-07T04:07:59.342Z,0
2017-09-07T04:09:09.297Z,0
2017-09-07T04:10:19.245Z,0
2017-09-07T04:11:29.505Z,0
2017-09-07T04:12:39.453Z,0
2017-09-07T04:13:49.083Z,0
2017-09-07T04:14:58.705Z,0
2017-09-07T04:16:08.648Z,0
2017-09-07T04:17:18.594Z,0
2017-09-07T04:18:28.862Z,0
2017-09-07T04:19:39.129Z,0
2017-09-07T04:20:49.395Z,5
2017-09-07T04:21:59.660Z,5
2017-09-07T04:23:09.926Z,5
2017-09-07T04:24:19.876Z,5
2017-09-07T04:25:29.499Z,10
2017-09-07T04:26:39.443Z,10
2017-09-07T04:27:49.717Z,10
2017-09-07T04:28:59.982Z,15
2017-09-07T04:30:10.251Z,15
2017-09-07T04:31:20.516Z,15
2017-09-07T04:32:30.459Z,15
2017-09-07T04:33:40.724Z,20
2017-09-07T04:34:50.676Z,20
2017-09-07T04:36:00.943Z,20
2017-09-07T04:37:10.891Z,20
2017-09-07T04:38:21.153Z,20
2017-09-07T04:39:30.786Z,20
2017-09-07T04:40:41.064Z,25
2017-09-07T04:41:51.016Z,25
2017-09-07T04:43:00.960Z,25
2017-09-07T04:44:10.909Z,25
2017-09-07T04:45:21.174Z,25
2017-09-07T04:46:31.118Z,30
2017-09-07T04:47:41.059Z,30
2017-09-07T04:48:51.492Z,30
2017-09-07T04:50:01.441Z,30
2017-09-07T04:51:11.720Z,30
2017-09-07T04:52:21.986Z,35
2017-09-07T04:53:32.250Z,35
2017-09-07T04:54:42.195Z,35
2017-09-07T04:55:52.142Z,35
2017-09-07T04:57:02.090Z,35
2017-09-07T04:58:12.354Z,40
2017-09-07T04:59:22.631Z,40
2017-09-07T05:00:32.899Z,40
2017-09-07T05:01:43.178Z,40
2017-09-07T05:02:53.123Z,40
2017-09-07T05:04:02.424Z,40
2017-09-07T05:05:12.372Z,40
2017-09-07T05:06:22.642Z,40
2017-09-07T05:07:32.913Z,45
2017-09-07T05:08:42.859Z,45
2017-09-07T05:09:52.804Z,45
2017-09-07T05:11:02.747Z,45
2017-09-07T05:12:15.016Z,45
2017-09-07T05:13:25.298Z,45
2017-09-07T05:14:35.564Z,45
2017-09-07T05:15:45.831Z,50
2017-09-07T05:16:55.454Z,50
2017-09-07T05:18:05.399Z,55
2017-09-07T05:19:15.665Z,55
2017-09-07T05:20:25.939Z,60
2017-09-07T05:21:36.205Z,60
2017-09-07T05:22:45.830Z,60
2017-09-07T05:23:56.095Z,65
2017-09-07T05:25:06.041Z,65
2017-09-07T05:26:16.315Z,65
2017-09-07T05:27:26.259Z,65
2017-09-07T05:28:36.227Z,65
2017-09-07T05:29:45.850Z,65
2017-09-07T05:30:55.152Z,65
2017-09-07T05:32:05.095Z,65
2017-09-07T05:33:15.040Z,65
2017-09-07T05:34:24.987Z,65
2017-09-07T05:35:35.260Z,65
2017-09-07T05:36:45.200Z,70
2017-09-07T05:37:55.143Z,70
2017-09-07T05:39:05.099Z,70
2017-09-07T05:40:15.381Z,70
2017-09-07T05:41:25.350Z,75
2017-09-07T05:42:35.620Z,80
2017-09-07T05:43:45.568Z,85
2017-09-07T05:44:55.837Z,85
2017-09-07T05:46:06.111Z,85
2017-09-07T05:47:16.419Z,90
2017-09-07T05:48:26.686Z,90
2017-09-07T05:49:35.989Z,90
2017-09-07T05:50:45.939Z,90
2017-09-07T05:51:55.244Z,90
2017-09-07T05:53:05.449Z,85
2017-09-07T05:54:15.718Z,85
2017-09-07T05:55:25.663Z,85
2017-09-07T05:56:35.930Z,80
2017-09-07T05:57:45.873Z,70
2017-09-07T05:58:55.817Z,70
2017-09-07T06:00:06.092Z,60
2017-09-07T06:01:16.035Z,50
2017-09-07T06:02:26.312Z,50
2017-09-07T06:03:35.945Z,55
2017-09-07T06:04:46.212Z,55
2017-09-07T06:05:56.157Z,55
2017-09-07T06:07:05.788Z,60
2017-09-07T06:08:16.059Z,70
2017-09-07T06:09:26.331Z,75
2017-09-07T06:10:36.597Z,60
2017-09-07T06:11:46.541Z,55
2017-09-07T06:12:56.810Z,50
2017-09-07T06:14:07.079Z,50
2017-09-07T06:15:16.709Z,50
2017-09-07T06:16:26.653Z,55
2017-09-07T06:17:36.921Z,55
2017-09-07T06:18:46.878Z,60
2017-09-07T06:19:56.499Z,65
2017-09-07T06:21:06.125Z,75
2017-09-07T06:22:16.391Z,70
2017-09-07T06:23:26.339Z,80
2017-09-07T06:24:36.283Z,90
2017-09-07T06:25:46.550Z,95
2017-09-07T06:26:56.497Z,100
2017-09-07T06:28:06.773Z,105
2017-09-07T06:29:17.047Z,105
2017-09-07T06:30:27.314Z,110
2017-09-07T06:31:37.588Z,115
2017-09-07T06:32:47.856Z,115
2017-09-07T06:33:57.799Z,115
2017-09-07T06:35:07.742Z,110
2017-09-07T06:36:17.371Z,110
2017-09-07T06:37:27.639Z,110
2017-09-07T06:38:37.904Z,110
2017-09-07T06:39:48.171Z,115
2017-09-07T06:40:57.795Z,115
2017-09-07T06:42:07.742Z,110
2017-09-07T06:43:18.012Z,110
2017-09-07T06:44:27.960Z,100
2017-09-07T06:45:38.277Z,90
2017-09-07T06:46:48.545Z,90
2017-09-07T06:47:58.490Z,85
2017-09-07T06:49:08.761Z,80
2017-09-07T06:50:19.031Z,85
2017-09-07T06:51:28.976Z,90
2017-09-07T06:52:38.598Z,90
2017-09-07T06:53:48.562Z,95
2017-09-07T06:54:58.831Z,105
2017-09-07T06:56:09.103Z,105
2017-09-07T06:57:19.372Z,90
2017-09-07T06:58:29.326Z,85
2017-09-07T06:59:38.637Z,95
2017-09-07T07:00:48.905Z,90
2017-09-07T07:01:58.848Z,85
2017-09-07T07:03:09.127Z,90
2017-09-07T07:04:19.077Z,100
2017-09-07T07:05:29.344Z,105
2017-09-07T07:06:39.614Z,115
2017-09-07T07:07:49.557Z,125
2017-09-07T07:08:59.826Z,130
2017-09-07T07:10:09.774Z,140
2017-09-07T07:11:20.052Z,150
2017-09-07T07:12:30.326Z,170
2017-09-07T07:13:39.950Z,170
2017-09-07T07:14:52.223Z,175
2017-09-07T07:16:02.168Z,175
2017-09-07T07:17:12.123Z,180
2017-09-07T07:18:22.399Z,185
2017-09-07T07:19:32.668Z,185
2017-09-07T07:20:42.935Z,185
2017-09-07T07:21:52.877Z,185
2017-09-07T07:23:03.145Z,185
2017-09-07T07:24:13.416Z,190
2017-09-07T07:25:23.688Z,190
2017-09-07T07:26:33.956Z,205
2017-09-07T07:27:44.225Z,200
2017-09-07T07:28:53.700Z,200
2017-09-07T07:30:03.969Z,205
2017-09-07T07:31:14.243Z,205
2017-09-07T07:32:24.190Z,210
2017-09-07T07:33:34.460Z,210
2017-09-07T07:34:44.410Z,215
2017-09-07T07:35:54.036Z,220
2017-09-07T07:37:03.981Z,220
2017-09-07T07:38:13.928Z,225
2017-09-07T07:39:24.199Z,225
2017-09-07T07:40:34.472Z,225
2017-09-07T07:41:44.418Z,230
2017-09-07T07:42:54.045Z,225
2017-09-07T07:44:04.044Z,225
2017-09-07T07:45:14.312Z,230
2017-09-07T07:46:24.582Z,240
2017-09-07T07:47:34.528Z,245
2017-09-07T07:48:44.480Z,245
2017-09-07T07:49:54.104Z,250
2017-09-07T07:51:03.735Z,250
2017-09-07T07:52:13.684Z,250
2017-09-07T07:53:23.633Z,250
2017-09-07T07:54:33.906Z,250
2017-09-07T07:55:43.855Z,255
2017-09-07T07:56:53.801Z,255
2017-09-07T07:58:03.750Z,260
2017-09-07T07:59:14.017Z,265
2017-09-07T08:00:23.963Z,265
2017-09-07T08:01:33.927Z,270
2017-09-07T08:02:43.873Z,270
2017-09-07T08:03:54.142Z,270
2017-09-07T08:05:04.097Z,270
2017-09-07T08:06:14.045Z,270
2017-09-07T08:07:24.324Z,270
2017-09-07T08:08:34.623Z,270
2017-09-07T08:09:44.574Z,275
2017-09-07T08:10:54.534Z,270
2017-09-07T08:12:04.803Z,260
2017-09-07T08:13:15.088Z,260
2017-09-07T08:14:25.035Z,260
2017-09-07T08:15:34.982Z,265
2017-09-07T08:16:44.957Z,270
2017-09-07T08:17:55.236Z,270
2017-09-07T08:19:05.185Z,270
2017-09-07T08:20:15.453Z,275
2017-09-07T08:21:25.404Z,275
2017-09-07T08:22:35.360Z,280
2017-09-07T08:23:45.629Z,280
2017-09-07T08:24:55.256Z,280
2017-09-07T08:26:05.205Z,285
2017-09-07T08:27:15.152Z,290
2017-09-07T08:28:25.423Z,295
2017-09-07T08:29:35.695Z,290
2017-09-07T08:30:45.963Z,285
2017-09-07T08:31:55.588Z,285
2017-09-07T08:33:05.863Z,280
2017-09-07T08:34:15.809Z,280
2017-09-07T08:35:25.762Z,285
2017-09-07T08:36:35.728Z,290
2017-09-07T08:37:45.676Z,295
2017-09-07T08:38:55.302Z,305
2017-09-07T08:40:05.251Z,320
2017-09-07T08:41:15.527Z,335
2017-09-07T08:42:25.474Z,350
2017-09-07T08:43:35.102Z,350
2017-09-07T08:44:45.049Z,355
2017-09-07T08:45:55.323Z,355
2017-09-07T08:47:05.271Z,350
2017-09-07T08:48:15.225Z,355
2017-09-07T08:49:25.179Z,350
2017-09-07T08:50:35.135Z,345
2017-09-07T08:51:45.093Z,320
2017-09-07T08:52:55.038Z,305
2017-09-07T08:54:04.694Z,285
2017-09-07T08:55:14.644Z,265
2017-09-07T08:56:24.924Z,245
2017-09-07T08:57:34.872Z,230
2017-09-07T08:58:45.142Z,225
2017-09-07T08:59:55.095Z,230
2017-09-07T09:01:05.366Z,225
2017-09-07T09:02:15.316Z,210
2017-09-07T09:03:24.947Z,200
2017-09-07T09:04:35.253Z,190
2017-09-07T09:05:44.881Z,180
2017-09-07T09:06:54.185Z,175
2017-09-07T09:08:04.455Z,180
2017-09-07T09:09:14.085Z,195
2017-09-07T09:10:24.362Z,205
2017-09-07T09:11:34.315Z,210
2017-09-07T09:12:44.588Z,215
2017-09-07T09:13:54.860Z,220
2017-09-07T09:15:04.820Z,215
2017-09-07T09:16:14.769Z,220
2017-09-07T09:17:24.718Z,230
2017-09-07T09:18:34.704Z,245
2017-09-07T09:19:44.981Z,260
2017-09-07T09:20:54.613Z,290
2017-09-07T09:22:04.242Z,320
2017-09-07T09:23:14.544Z,335
2017-09-07T09:24:24.491Z,350
2017-09-07T09:25:34.757Z,360
2017-09-07T09:26:45.030Z,365
2017-09-07T09:27:54.984Z,375
2017-09-07T09:29:04.291Z,380
2017-09-07T09:30:14.243Z,395
2017-09-07T09:31:23.877Z,400
2017-09-07T09:32:34.147Z,415
2017-09-07T09:33:44.423Z,425
2017-09-07T09:34:54.698Z,430
2017-09-07T09:36:05.006Z,415
2017-09-07T09:37:14.956Z,410
2017-09-07T09:38:25.233Z,395
2017-09-07T09:39:35.197Z,385
2017-09-07T09:40:45.470Z,365
2017-09-07T09:41:55.743Z,340
2017-09-07T09:43:05.052Z,330
2017-09-07T09:44:14.692Z,305
2017-09-07T09:45:24.960Z,285
2017-09-07T09:46:34.916Z,260
2017-09-07T09:47:44.867Z,255
2017-09-07T09:48:54.173Z,250
2017-09-07T09:50:04.446Z,250
2017-09-07T09:51:14.107Z,270
2017-09-07T09:52:23.737Z,295
2017-09-07T09:53:33.687Z,305
2017-09-07T09:54:43.674Z,320
2017-09-07T09:55:53.624Z,320
2017-09-07T09:57:03.254Z,325
2017-09-07T09:58:13.526Z,320
2017-09-07T09:59:23.795Z,315
2017-09-07T10:00:34.077Z,310
2017-09-07T10:01:43.706Z,310
2017-09-07T10:02:53.654Z,300
2017-09-07T10:04:03.282Z,295
2017-09-07T10:05:13.558Z,310
2017-09-07T10:06:23.834Z,300
2017-09-07T10:07:33.784Z,290
2017-09-07T10:08:43.731Z,275
2017-09-07T10:09:54.010Z,245
2017-09-07T10:11:04.284Z,235
2017-09-07T10:12:14.554Z,235
2017-09-07T10:13:24.826Z,230
2017-09-07T10:14:34.462Z,205
2017-09-07T10:15:43.769Z,180
2017-09-07T10:16:53.717Z,175
2017-09-07T10:18:04.007Z,170
2017-09-07T10:19:14.277Z,155
2017-09-07T10:20:24.548Z,145
2017-09-07T10:21:34.497Z,145
2017-09-07T10:22:44.444Z,155
2017-09-07T10:23:54.719Z,160
2017-09-07T10:25:04.999Z,150
2017-09-07T10:26:14.951Z,145
2017-09-07T10:27:25.227Z,140
2017-09-07T10:28:35.177Z,140
2017-09-07T10:29:45.128Z,145
2017-09-07T10:30:55.406Z,160
2017-09-07T10:32:05.679Z,180
2017-09-07T10:33:15.836Z,190
2017-09-07T10:34:26.113Z,190
2017-09-07T10:35:36.384Z,185
2017-09-07T10:36:46.339Z,190
2017-09-07T10:37:55.978Z,185
2017-09-07T10:39:05.927Z,190
2017-09-07T10:40:16.193Z,200
2017-09-07T10:41:26.148Z,205
2017-09-07T10:42:35.783Z,210
2017-09-07T10:43:45.089Z,210
2017-09-07T10:44:55.361Z,210
2017-09-07T10:46:05.628Z,205
2017-09-07T10:47:15.256Z,205
2017-09-07T10:48:25.523Z,210
2017-09-07T10:49:35.792Z,215
2017-09-07T10:50:45.742Z,220
2017-09-07T10:51:55.712Z,220
2017-09-07T10:53:05.338Z,220
2017-09-07T10:54:15.289Z,220
2017-09-07T10:55:25.558Z,215
2017-09-07T10:56:35.514Z,210
2017-09-07T10:57:45.796Z,205
2017-09-07T10:58:55.422Z,200
2017-09-07T11:00:05.047Z,200
2017-09-07T11:01:15.342Z,195
2017-09-07T11:02:25.617Z,185
2017-09-07T11:03:35.890Z,175
2017-09-07T11:04:46.159Z,175
2017-09-07T11:05:55.786Z,180
2017-09-07T11:07:06.058Z,190
2017-09-07T11:08:16.326Z,200
2017-09-07T11:09:26.272Z,215
2017-09-07T11:10:36.579Z,220
2017-09-07T11:11:46.528Z,220
2017-09-07T11:12:56.161Z,225
2017-09-07T11:14:05.948Z,230
2017-09-07T11:15:15.898Z,240
2017-09-07T11:16:25.524Z,245
2017-09-07T11:17:35.530Z,245
2017-09-07T11:18:45.481Z,245
2017-09-07T11:19:55.751Z,245
2017-09-07T11:21:05.393Z,245
2017-09-07T11:22:15.344Z,240
2017-09-07T11:23:25.613Z,235
2017-09-07T11:24:35.247Z,230
2017-09-07T11:25:44.877Z,230
2017-09-07T11:26:55.145Z,235
2017-09-07T11:28:05.415Z,230
2017-09-07T11:29:15.366Z,225
2017-09-07T11:30:25.832Z,220
2017-09-07T11:31:36.107Z,220
2017-09-07T11:32:45.737Z,225
2017-09-07T11:33:55.686Z,230
2017-09-07T11:35:05.638Z,230
2017-09-07T11:36:15.909Z,235
2017-09-07T11:37:25.859Z,230
2017-09-07T11:38:35.807Z,225
2017-09-07T11:39:45.758Z,220
2017-09-07T11:40:55.387Z,215
2017-09-07T11:42:05.335Z,210
2017-09-07T11:43:15.606Z,195
2017-09-07T12:13:00.478Z,260
2017-09-07T12:14:10.963Z,260
2017-09-07T12:15:21.231Z,265
2017-09-07T12:16:31.176Z,275
2017-09-07T12:17:40.799Z,275
2017-09-07T12:18:50.746Z,275
2017-09-07T12:20:01.013Z,280
2017-09-07T12:21:11.007Z,280
2017-09-07T12:22:20.956Z,280
2017-09-07T12:23:31.229Z,285
2017-09-07T12:24:41.182Z,285
2017-09-07T12:25:51.448Z,285
2017-09-07T12:27:01.393Z,290
2017-09-07T12:28:11.340Z,295
2017-09-07T12:29:21.289Z,295
2017-09-07T12:30:31.234Z,295
2017-09-07T12:31:41.178Z,290
2017-09-07T12:32:51.124Z,285
2017-09-07T12:34:01.429Z,285
2017-09-07T12:35:11.025Z,285
2017-09-07T12:36:21.295Z,285
2017-09-07T12:37:30.956Z,285
2017-09-07T12:38:41.220Z,285
2017-09-07T12:39:50.840Z,290
2017-09-07T12:41:01.112Z,290
2017-09-07T12:42:11.062Z,295
2017-09-07T12:43:21.370Z,300
2017-09-07T12:44:31.640Z,290
2017-09-07T12:45:41.588Z,285
2017-09-07T12:46:51.855Z,280
2017-09-07T12:48:01.799Z,280
2017-09-07T12:49:12.070Z,270
2017-09-07T12:50:22.347Z,270
2017-09-07T12:51:31.979Z,270
2017-09-07T12:52:41.283Z,275
2017-09-07T12:53:51.545Z,265
2017-09-07T12:55:01.168Z,265
2017-09-07T12:56:11.121Z,260
2017-09-07T12:57:21.392Z,260
2017-09-07T12:58:31.016Z,260
2017-09-07T12:59:40.962Z,260
2017-09-07T13:00:50.912Z,270
2017-09-07T13:02:00.866Z,260
2017-09-07T13:03:10.494Z,260
2017-09-07T13:04:20.122Z,255
2017-09-07T13:05:30.394Z,255
2017-09-07T13:06:40.667Z,250
2017-09-07T13:07:50.936Z,250
2017-09-07T13:09:01.204Z,245
2017-09-07T13:10:11.157Z,240
2017-09-07T13:11:21.435Z,235
2017-09-07T13:12:31.707Z,235
2017-09-07T13:13:41.330Z,235
2017-09-07T13:14:51.604Z,235
2017-09-07T13:16:01.228Z,235
2017-09-07T13:17:11.491Z,240
2017-09-07T13:18:21.784Z,245
2017-09-07T13:19:32.053Z,245
2017-09-07T13:20:41.996Z,245
2017-09-07T13:21:52.264Z,245
2017-09-07T13:23:01.888Z,245
2017-09-07T13:24:12.168Z,230
2017-09-07T13:25:22.428Z,230
2017-09-07T13:26:32.372Z,225
2017-09-07T13:27:42.355Z,225
2017-09-07T13:28:54.731Z,220
2017-09-07T13:30:05.010Z,215
2017-09-07T13:31:14.632Z,210
2017-09-07T13:32:24.909Z,210
2017-09-07T13:33:34.857Z,210
2017-09-07T13:34:44.808Z,210
2017-09-07T13:35:55.073Z,205
2017-09-07T13:37:05.019Z,205
2017-09-07T13:38:14.642Z,200
2017-09-07T13:39:24.912Z,195
2017-09-07T13:40:34.859Z,195
2017-09-07T13:41:44.799Z,195
2017-09-07T13:42:54.751Z,185
2017-09-07T13:44:05.016Z,185
2017-09-07T13:45:15.288Z,180
2017-09-07T13:46:25.559Z,180
2017-09-07T13:47:35.506Z,175
2017-09-07T13:48:45.769Z,175
2017-09-07T13:49:55.716Z,175
2017-09-07T13:51:05.993Z,175
2017-09-07T13:52:15.618Z,175
2017-09-07T13:53:25.569Z,180
2017-09-07T13:54:35.836Z,175
2017-09-07T13:55:45.787Z,175
2017-09-07T13:56:55.092Z,175
2017-09-07T13:58:05.039Z,175
2017-09-07T13:59:14.992Z,175
2017-09-07T14:00:24.950Z,175
2017-09-07T14:01:34.895Z,175
2017-09-07T14:02:45.161Z,175
2017-09-07T14:03:55.115Z,170
2017-09-07T14:05:05.062Z,170
2017-09-07T14:06:15.005Z,165
2017-09-07T14:07:24.956Z,170
2017-09-07T14:08:35.224Z,170
2017-09-07T14:09:44.845Z,170
2017-09-07T14:10:54.798Z,175
2017-09-07T14:12:04.748Z,175
2017-09-07T14:13:14.694Z,175
2017-09-07T14:14:24.968Z,175
2017-09-07T14:15:35.243Z,175
2017-09-07T14:16:45.513Z,175
2017-09-07T14:17:55.139Z,180
2017-09-07T14:19:05.087Z,180
2017-09-07T14:20:14.721Z,185
2017-09-07T14:21:24.985Z,190
2017-09-07T14:22:34.937Z,195
2017-09-07T14:23:45.212Z,190
2017-09-07T14:24:55.156Z,190
2017-09-07T14:26:05.104Z,190
2017-09-07T14:27:15.048Z,190
2017-09-07T14:28:24.997Z,195
2017-09-07T14:29:35.265Z,195
2017-09-07T14:30:45.536Z,200
2017-09-07T14:31:55.812Z,200
2017-09-07T14:33:06.080Z,205
2017-09-07T14:34:16.028Z,205
2017-09-07T14:35:26.297Z,210
2017-09-07T14:36:36.239Z,215
2017-09-07T14:37:45.864Z,220
2017-09-07T14:38:55.805Z,230
2017-09-07T14:40:05.108Z,235
2017-09-07T14:41:15.049Z,235
2017-09-07T14:42:24.996Z,245
2017-09-07T14:43:34.948Z,250
2017-09-07T14:44:44.893Z,255
2017-09-07T14:45:55.160Z,260
2017-09-07T14:47:05.112Z,260
2017-09-07T14:48:15.060Z,265
2017-09-07T14:49:25.340Z,265
2017-09-07T14:50:35.286Z,260
2017-09-07T14:51:45.558Z,260
2017-09-07T14:52:55.827Z,265
2017-09-07T14:54:05.776Z,275
2017-09-07T14:55:16.043Z,280
2017-09-07T14:56:25.989Z,285
2017-09-07T14:57:35.934Z,290
2017-09-07T14:58:45.884Z,290
2017-09-07T14:59:55.829Z,285
2017-09-07T15:01:05.784Z,280
2017-09-07T15:02:15.736Z,280
2017-09-07T15:03:26.006Z,280
2017-09-07T15:04:36.267Z,275
2017-09-07T15:05:46.532Z,275
2017-09-07T15:06:56.477Z,270
2017-09-07T15:08:06.428Z,265
2017-09-07T15:09:16.732Z,270
2017-09-07T15:10:26.683Z,270
2017-09-07T15:11:36.629Z,270
2017-09-07T15:12:46.900Z,270
2017-09-07T15:13:57.168Z,270
2017-09-07T15:15:07.111Z,270
2017-09-07T15:16:17.059Z,275
2017-09-07T15:17:26.688Z,275
2017-09-07T15:18:36.631Z,270
2017-09-07T15:19:46.258Z,270
2017-09-07T15:20:56.534Z,270
2017-09-07T15:22:06.809Z,270
2017-09-07T15:23:17.081Z,270
2017-09-07T15:24:26.713Z,270
2017-09-07T15:25:36.670Z,265
2017-09-07T15:26:46.619Z,265
2017-09-07T15:27:56.889Z,260
2017-09-07T15:29:07.169Z,255
2017-09-07T15:30:16.806Z,255
2017-09-07T15:31:27.074Z,255
2017-09-07T15:32:37.019Z,250
2017-09-07T15:33:46.975Z,250
2017-09-07T15:34:57.252Z,250
2017-09-07T15:36:07.203Z,245
2017-09-07T15:37:16.186Z,240
2017-09-07T15:38:26.132Z,240
2017-09-07T15:39:36.398Z,240
2017-09-07T15:40:46.667Z,235
2017-09-07T15:41:56.293Z,230
2017-09-07T15:43:05.935Z,225
2017-09-07T15:44:15.884Z,220
2017-09-07T15:45:25.829Z,215
2017-09-07T15:46:36.099Z,215
2017-09-07T15:47:46.373Z,215
2017-09-07T15:48:56.001Z,210
2017-09-07T15:50:05.633Z,205
2017-09-07T15:51:15.584Z,200
2017-09-07T15:52:25.853Z,195
2017-09-07T15:53:35.479Z,190
2017-09-07T15:54:45.424Z,185
2017-09-07T15:55:55.693Z,180
2017-09-07T15:57:05.960Z,175
2017-09-07T15:58:16.234Z,170
2017-09-07T15:59:26.509Z,165
2017-09-07T16:00:36.458Z,160
2017-09-07T16:01:46.734Z,150
2017-09-07T16:02:57.005Z,145
2017-09-07T16:04:06.952Z,140
2017-09-07T16:05:17.213Z,135
2017-09-07T16:06:27.480Z,125
2017-09-07T16:07:37.749Z,120
2017-09-07T16:08:47.049Z,115
2017-09-07T16:09:56.999Z,110
2017-09-07T16:11:06.946Z,105
2017-09-07T16:12:17.219Z,100
2017-09-07T16:13:27.493Z,95
2017-09-07T16:14:37.449Z,90
2017-09-07T16:15:47.712Z,85
2017-09-07T16:16:57.666Z,85
2017-09-07T16:18:07.609Z,80
2017-09-07T16:19:17.236Z,75
2017-09-07T16:20:27.177Z,70
2017-09-07T16:21:37.116Z,65
2017-09-07T16:22:47.058Z,65
2017-09-07T16:23:57.010Z,60
2017-09-07T16:25:07.283Z,55
2017-09-07T16:26:17.557Z,55
2017-09-07T16:27:27.820Z,50
2017-09-07T16:28:37.792Z,50
2017-09-07T16:29:47.741Z,50
2017-09-07T16:30:58.004Z,50
2017-09-07T16:32:07.952Z,50
2017-09-07T16:33:18.219Z,50
2017-09-07T16:34:28.486Z,50
2017-09-07T16:35:38.434Z,45
2017-09-07T16:36:48.378Z,45
2017-09-07T16:37:58.002Z,45
2017-09-07T16:39:08.271Z,45
2017-09-07T16:40:18.217Z,40
2017-09-07T16:41:28.482Z,40
2017-09-07T16:42:38.430Z,40
2017-09-07T16:43:48.706Z,40
2017-09-07T16:44:58.975Z,40
2017-09-07T16:46:08.596Z,40
2017-09-07T16:47:18.865Z,35
2017-09-07T16:48:28.823Z,35
2017-09-07T16:49:39.099Z,35
2017-09-07T16:50:49.049Z,35
2017-09-07T16:51:59.311Z,35
2017-09-07T16:53:09.261Z,35
2017-09-07T16:54:19.532Z,35
2017-09-07T16:55:29.468Z,35
2017-09-07T16:56:39.734Z,35
2017-09-07T16:57:49.359Z,35